Cmb Charlotte — VRHT9 — position and weather

sailwx.info

Track history (hours):
 
Tides and Currents Weather Stations Pressure Air Temp Water Temp Dewpoint Dewpoint Depression Visibility Wind Speed Wind Dir Waves Ship Positions

Cmb Charlotte

Last reported at 2018-Feb-20 23:03 UTC. Time now 2018-Feb-23 00:11 UTC.
Position N 49°58' W 003°01'.

Length 180 m; draft 10 m.

Type: Cargo ship. MMSI: 477892200.

Date/timePositionNaut miles runAvg speedWind from/ knotsBaromVisibWave heightAir tempDewpointWater temp
2018-Feb-20 23:03N 49°58' W 003°01'2 9.7
2018-Feb-20 22:52N 49°59' W 002°59'3 8.4
2018-Feb-20 22:31N 49°59' W 002°55'5 9.0
2018-Feb-20 22:00N 50°01' W 002°48'3310.2
2018-Feb-20 18:48N 50°09' W 001°59'412.9
2018-Feb-20 18:30N 50°10' W 001°53'713.7
2018-Feb-20 18:01N 50°12' W 001°43'714.0
2018-Feb-20 17:31N 50°14' W 001°33'714.3
2018-Feb-20 17:00N 50°16' W 001°22'4112.8
2018-Feb-20 13:48N 50°27' W 000°20'310.7
2018-Feb-20 13:30N 50°27' W 000°15'510.1
2018-Feb-20 13:00N 50°29' W 000°07'5 9.3
2018-Feb-20 12:25N 50°30' E 000°01'4 8.9
2018-Feb-20 12:00N 50°31' E 000°07'5 8.6
2018-Feb-20 11:27N 50°32' E 000°14'4 9.0
2018-Feb-20 11:00N 50°34' E 000°20'5 9.5
2018-Feb-20 10:30N 50°35' E 000°27'510.3
2018-Feb-20 09:59N 50°36' E 000°35'511.2
2018-Feb-20 09:30N 50°39' E 000°42'612.0
2018-Feb-20 09:00N 50°43' E 000°50'712.7
2018-Feb-20 08:29N 50°46' E 000°59'612.9
2018-Feb-20 07:59N 50°51' E 001°06'1512.6
2018-Feb-20 06:48N 51°02' E 001°22'411.8
2018-Feb-20 06:30N 51°04' E 001°27'511.0
2018-Feb-20 06:01N 51°07' E 001°33'510.1
2018-Feb-20 05:30N 51°10' E 001°40'5 9.8
2018-Feb-20 05:00N 51°13' E 001°46'4 8.5
2018-Feb-20 04:30N 51°17' E 001°49'5 9.2
2018-Feb-20 04:00N 51°21' E 001°52'5 9.5
2018-Feb-20 03:30N 51°25' E 001°56'510.0
2018-Feb-20 03:00N 51°29' E 002°00'510.5
2018-Feb-20 02:30N 51°33' E 002°06'510.6
2018-Feb-20 02:00N 51°37' E 002°12'611.3
2018-Feb-20 01:29N 51°42' E 002°18'44810.3
2018-Feb-18 06:09N 57°48' E 009°46'210.4
2018-Feb-18 05:59N 57°48' E 009°50'510.2
2018-Feb-18 05:28N 57°49' E 009°59'510.5
2018-Feb-18 05:00N 57°49' E 010°09'510.4
2018-Feb-18 04:30N 57°49' E 010°18'510.7
2018-Feb-18 04:00N 57°49' E 010°28'510.6
2018-Feb-18 03:30N 57°49' E 010°38'510.4
2018-Feb-18 03:00N 57°47' E 010°47'611.7
2018-Feb-18 02:30N 57°43' E 010°56'612.4
2018-Feb-18 02:00N 57°39' E 011°04'612.7
2018-Feb-18 01:30N 57°35' E 011°13'612.4
2018-Feb-18 01:00N 57°30' E 011°21'611.9
2018-Feb-18 00:30N 57°26' E 011°28'612.0
2018-Feb-18 00:00N 57°20' E 011°31'611.6
2018-Feb-17 23:30N 57°14' E 011°35'611.8
2018-Feb-17 23:00N 57°09' E 011°39'11610.7
2018-Feb-17 12:10N 55°15' E 011°06'212.0
2018-Feb-17 11:59N 55°13' E 011°06'712.0
2018-Feb-17 11:26N 55°06' E 011°03'512.6
2018-Feb-17 11:00N 55°01' E 011°02'611.8
2018-Feb-17 10:30N 54°56' E 010°56'611.7
2018-Feb-17 10:00N 54°51' E 010°53'611.8
2018-Feb-17 09:30N 54°45' E 010°48'5 9.4
2018-Feb-17 09:00N 54°40' E 010°49'611.8
2018-Feb-17 08:30N 54°37' E 010°57'611.9
2018-Feb-17 08:00N 54°36' E 011°07'612.2
2018-Feb-17 07:30N 54°34' E 011°17'612.2
2018-Feb-17 07:00N 54°31' E 011°27'612.2
2018-Feb-17 06:30N 54°29' E 011°37'612.1
2018-Feb-17 06:00N 54°27' E 011°46'612.3
2018-Feb-17 05:30N 54°26' E 011°57'612.3
2018-Feb-17 05:00N 54°26' E 012°07'64 8.6
2018-Feb-16 21:32N 54°60' E 013°43'210.1
2018-Feb-16 21:18N 55°00' E 013°47'7 9.8
2018-Feb-16 20:38N 55°03' E 013°57'6 9.6
2018-Feb-16 19:58N 55°06' E 014°07'1210.0
2018-Feb-16 18:44N 55°16' E 014°21'2 9.6
2018-Feb-16 18:30N 55°17' E 014°23'6 9.5
2018-Feb-16 17:50N 55°22' E 014°30'3 9.5
2018-Feb-16 17:29N 55°25' E 014°34'6 9.4
2018-Feb-16 16:48N 55°29' E 014°43'3 9.6
2018-Feb-16 16:30N 55°30' E 014°47'5 9.5
2018-Feb-16 16:00N 55°32' E 014°55'5 9.9
2018-Feb-16 15:30N 55°34' E 015°03'610.1
2018-Feb-16 14:54N 55°37' E 015°12'410.2
2018-Feb-16 14:30N 55°39' E 015°19'510.4
2018-Feb-16 14:00N 55°42' E 015°27'510.8
2018-Feb-16 13:30N 55°44' E 015°35'510.9
2018-Feb-16 13:00N 55°47' E 015°44'510.8
2018-Feb-16 12:30N 55°49' E 015°52'510.7
2018-Feb-16 12:00N 55°52' E 016°00'510.6
2018-Feb-16 11:30N 55°55' E 016°08'510.7
2018-Feb-16 11:00N 55°58' E 016°16'510.6
2018-Feb-16 10:30N 56°01' E 016°24'510.6
2018-Feb-16 10:00N 56°04' E 016°32'510.5
2018-Feb-16 09:30N 56°07' E 016°40'610.4
2018-Feb-16 08:55N 56°10' E 016°48'510.3
2018-Feb-16 08:29N 56°13' E 016°55'28510.4
2018-Feb-15 05:04N 59°36' E 023°12'111.7
2018-Feb-15 05:00N 59°36' E 023°14'611.9
2018-Feb-15 04:30N 59°38' E 023°25'611.5
2018-Feb-15 04:00N 59°40' E 023°36'611.3
2018-Feb-15 03:30N 59°41' E 023°47'611.0
2018-Feb-15 02:56N 59°43' E 023°59'1011.3
2018-Feb-15 02:02N 59°46' E 024°18'010.9
2018-Feb-15 02:00N 59°46' E 024°19'611.3
2018-Feb-15 01:30N 59°48' E 024°29'611.9
2018-Feb-15 01:00N 59°49' E 024°41'611.5
2018-Feb-15 00:30N 59°50' E 024°52'611.1
2018-Feb-14 23:57N 59°52' E 025°04'511.3
2018-Feb-14 23:30N 59°53' E 025°14'611.4
2018-Feb-14 23:00N 59°54' E 025°25'611.5
2018-Feb-14 22:30N 59°55' E 025°36'1811.3
2018-Feb-14 20:52N 59°59' E 026°12'411.2
2018-Feb-14 20:30N 59°60' E 026°20'511.0
2018-Feb-14 20:01N 60°01' E 026°31'510.7
2018-Feb-14 19:31N 60°01' E 026°41'611.3
2018-Feb-14 19:00N 60°00' E 026°52'510.9
2018-Feb-14 18:30N 59°60' E 027°03'611.0
2018-Feb-14 18:00N 60°03' E 027°12'611.0
2018-Feb-14 17:30N 60°05' E 027°22'510.4
2018-Feb-14 17:00N 60°08' E 027°31'510.0
2018-Feb-14 16:31N 60°10' E 027°40'5 9.9
2018-Feb-14 16:01N 60°11' E 027°50'5 9.9
2018-Feb-14 15:30N 60°10' E 027°60'510.0
2018-Feb-14 15:00N 60°09' E 028°09'5 9.7
2018-Feb-14 14:30N 60°07' E 028°18'510.0
2018-Feb-14 14:00N 60°04' E 028°26'5 9.9
2018-Feb-14 13:30N 60°03' E 028°36'510.6
2018-Feb-14 13:00N 60°03' E 028°47'2711.0
2018-Feb-14 10:35N 59°60' E 029°40'210.6
2018-Feb-14 10:22N 59°59' E 029°44'3 9.4
2018-Feb-14 10:00N 59°57' E 029°50'5 9.5
2018-Feb-14 09:30N 59°56' E 029°59'4 8.7
2018-Feb-14 09:01N 59°54' E 030°07'3 4.5
2018-Feb-14 08:27N 59°53' E 030°11'0 0.0
2018-Feb-14 08:00N 59°53' E 030°11'0 0.0
2018-Feb-14 07:30N 59°53' E 030°11'0 0.0
2018-Feb-14 06:45N 59°53' E 030°11'0 0.0
2018-Feb-14 06:24N 59°53' E 030°11'0 0.0
2018-Feb-14 05:57N 59°53' E 030°11'0 0.0
2018-Feb-14 05:30N 59°53' E 030°11'0 0.0
2018-Feb-14 05:00N 59°53' E 030°11'0 0.0
2018-Feb-14 04:30N 59°53' E 030°11'0 0.0
2018-Feb-14 04:00N 59°53' E 030°11'0 0.0
2018-Feb-14 03:27N 59°53' E 030°11'0 0.0
2018-Feb-14 02:57N 59°53' E 030°11'0 0.0
2018-Feb-14 02:30N 59°53' E 030°11'0 0.0
2018-Feb-14 01:57N 59°53' E 030°11'0 0.0
2018-Feb-14 01:30N 59°53' E 030°11'0 0.0
2018-Feb-14 01:00N 59°53' E 030°11'0 0.0
2018-Feb-14 00:30N 59°53' E 030°11'0 0.0
2018-Feb-14 00:00N 59°53' E 030°11'0 0.0
2018-Feb-13 23:30N 59°53' E 030°11'0 0.0
2018-Feb-13 23:00N 59°53' E 030°11'0 0.0
2018-Feb-13 22:30N 59°53' E 030°11'0 0.0
2018-Feb-13 22:00N 59°53' E 030°11'0 0.0
2018-Feb-13 21:30N 59°53' E 030°11'0 0.0
2018-Feb-13 21:00N 59°53' E 030°11'0 0.0
2018-Feb-13 20:30N 59°53' E 030°11'0 0.0
2018-Feb-13 20:00N 59°53' E 030°11'0 0.0
2018-Feb-13 19:30N 59°53' E 030°11'0 0.0
2018-Feb-13 19:00N 59°53' E 030°11'0 0.0
2018-Feb-13 18:27N 59°53' E 030°11'0 0.0
2018-Feb-13 18:00N 59°53' E 030°11'0 0.0
2018-Feb-13 17:30N 59°53' E 030°11'0 0.0
2018-Feb-13 17:00N 59°53' E 030°11'0 0.0
2018-Feb-13 16:30N 59°53' E 030°11'0 0.0
2018-Feb-13 16:00N 59°53' E 030°11'0 0.0
2018-Feb-13 15:27N 59°53' E 030°11'0 0.0
2018-Feb-13 15:00N 59°53' E 030°11'0 0.0
2018-Feb-13 14:27N 59°53' E 030°11'0 0.0
2018-Feb-13 13:54N 59°53' E 030°11'0 0.0
2018-Feb-13 13:30N 59°53' E 030°11'0 0.0
2018-Feb-13 13:00N 59°53' E 030°11'0 0.0
2018-Feb-13 12:30N 59°53' E 030°11'0 0.0
2018-Feb-13 11:57N 59°53' E 030°11'0 0.0
2018-Feb-13 11:27N 59°53' E 030°11'0 0.0
2018-Feb-13 11:00N 59°53' E 030°11'0 0.0
2018-Feb-13 10:30N 59°53' E 030°11'0 0.0
2018-Feb-13 10:00N 59°53' E 030°11'0 0.0
2018-Feb-13 09:21N 59°53' E 030°11'0 0.0
2018-Feb-13 08:57N 59°53' E 030°11'0 0.0
2018-Feb-13 08:30N 59°53' E 030°11'0 0.0
2018-Feb-13 08:00N 59°53' E 030°11'0 0.0
2018-Feb-13 07:24N 59°53' E 030°11'0 0.0
2018-Feb-13 07:00N 59°53' E 030°11'0 0.0
2018-Feb-13 06:27N 59°53' E 030°11'0 0.0
2018-Feb-13 06:00N 59°53' E 030°11'0 0.0
2018-Feb-13 05:30N 59°53' E 030°11'0 0.0
2018-Feb-13 05:00N 59°53' E 030°11'0 0.0
2018-Feb-13 04:30N 59°53' E 030°11'0 0.0
2018-Feb-13 03:51N 59°53' E 030°11'0 0.0
2018-Feb-13 03:24N 59°53' E 030°11'0 0.0
2018-Feb-13 03:00N 59°53' E 030°11'0 0.0
2018-Feb-13 02:27N 59°53' E 030°11'0 0.0
2018-Feb-13 01:54N 59°53' E 030°11'0 0.0
2018-Feb-13 01:30N 59°53' E 030°11'0 0.0
2018-Feb-13 01:00N 59°53' E 030°11'0 0.0
2018-Feb-13 00:30N 59°53' E 030°11'0 0.0
2018-Feb-13 00:00N 59°53' E 030°11'0 0.0
2018-Feb-12 23:30N 59°53' E 030°11'0 0.0
2018-Feb-12 23:00N 59°53' E 030°11'0 0.0
2018-Feb-12 22:30N 59°53' E 030°11'0 0.0
2018-Feb-12 21:57N 59°53' E 030°11'0 0.0
2018-Feb-12 21:30N 59°53' E 030°11'0 0.0
2018-Feb-12 21:00N 59°53' E 030°11'0 0.0
2018-Feb-12 20:30N 59°53' E 030°11'0 0.0
2018-Feb-12 19:54N 59°53' E 030°11'0 0.0
2018-Feb-12 19:30N 59°53' E 030°11'0 0.0
2018-Feb-12 18:57N 59°53' E 030°11'0 0.0
2018-Feb-12 18:27N 59°53' E 030°11'0 0.0
2018-Feb-12 18:00N 59°53' E 030°11'0 0.0
2018-Feb-12 17:30N 59°53' E 030°11'0 0.0
2018-Feb-12 16:57N 59°53' E 030°11'0 0.0
2018-Feb-12 16:18N 59°53' E 030°11'0 0.0
2018-Feb-12 16:00N 59°53' E 030°11'0 0.0
2018-Feb-12 15:18N 59°53' E 030°11'0 0.0
2018-Feb-12 14:59N 59°53' E 030°11'0 0.0
2018-Feb-12 14:30N 59°53' E 030°11'0 0.0
2018-Feb-12 14:00N 59°53' E 030°11'0 0.0
2018-Feb-12 13:30N 59°53' E 030°11'0 0.0
2018-Feb-12 12:54N 59°53' E 030°11'0 0.0
2018-Feb-12 11:35N 59°53' E 030°11'0 0.0
2018-Feb-12 11:27N 59°53' E 030°11'0 0.0
2018-Feb-12 11:00N 59°53' E 030°11'0 0.0
2018-Feb-12 10:26N 59°53' E 030°11'0 0.0
2018-Feb-12 09:24N 59°53' E 030°11'0 0.0
2018-Feb-12 08:50N 59°53' E 030°11'0 0.0
2018-Feb-12 08:30N 59°53' E 030°11'0 0.0
2018-Feb-12 07:54N 59°53' E 030°11'0 0.0
2018-Feb-12 07:30N 59°53' E 030°11'0 0.0
2018-Feb-12 07:00N 59°53' E 030°11'0 0.0
2018-Feb-12 06:30N 59°53' E 030°11'0 0.1
2018-Feb-12 06:01N 59°53' E 030°11'0 0.3
2018-Feb-12 05:31N 59°53' E 030°12'1 1.1
2018-Feb-12 05:00N 59°53' E 030°11'0 0.8
2018-Feb-12 04:30N 59°53' E 030°10'0 0.4
2018-Feb-12 04:01N 59°53' E 030°10'4 8.3
2018-Feb-12 03:29N 59°55' E 030°02'510.3
2018-Feb-12 03:00N 59°57' E 029°52'710.1
2018-Feb-12 02:19N 59°60' E 029°40'  
Track history (hours):
 
Tides and Currents Weather Stations Pressure Air Temp Water Temp Dewpoint Dewpoint Depression Visibility Wind Speed Wind Dir Waves Ship Positions

Cmb Charlotte

Last reported at 2018-Feb-20 23:03 UTC. Time now 2018-Feb-23 00:11 UTC.
Position N 49°58' W 003°01'.

Length 180 m; draft 10 m.

Type: Cargo ship. MMSI: 477892200.

Date/timePositionNaut miles runAvg speedWind from/ knotsBaromVisibWave heightAir tempDewpointWater temp
2018-Feb-20 23:03N 49°58' W 003°01'2 9.7
2018-Feb-20 22:52N 49°59' W 002°59'3 8.4
2018-Feb-20 22:31N 49°59' W 002°55'5 9.0
2018-Feb-20 22:00N 50°01' W 002°48'3310.2
2018-Feb-20 18:48N 50°09' W 001°59'412.9
2018-Feb-20 18:30N 50°10' W 001°53'713.7
2018-Feb-20 18:01N 50°12' W 001°43'714.0
2018-Feb-20 17:31N 50°14' W 001°33'714.3
2018-Feb-20 17:00N 50°16' W 001°22'4112.8
2018-Feb-20 13:48N 50°27' W 000°20'310.7
2018-Feb-20 13:30N 50°27' W 000°15'510.1
2018-Feb-20 13:00N 50°29' W 000°07'5 9.3
2018-Feb-20 12:25N 50°30' E 000°01'4 8.9
2018-Feb-20 12:00N 50°31' E 000°07'5 8.6
2018-Feb-20 11:27N 50°32' E 000°14'4 9.0
2018-Feb-20 11:00N 50°34' E 000°20'5 9.5
2018-Feb-20 10:30N 50°35' E 000°27'510.3
2018-Feb-20 09:59N 50°36' E 000°35'511.2
2018-Feb-20 09:30N 50°39' E 000°42'612.0
2018-Feb-20 09:00N 50°43' E 000°50'712.7
2018-Feb-20 08:29N 50°46' E 000°59'612.9
2018-Feb-20 07:59N 50°51' E 001°06'1512.6
2018-Feb-20 06:48N 51°02' E 001°22'411.8
2018-Feb-20 06:30N 51°04' E 001°27'511.0
2018-Feb-20 06:01N 51°07' E 001°33'510.1
2018-Feb-20 05:30N 51°10' E 001°40'5 9.8
2018-Feb-20 05:00N 51°13' E 001°46'4 8.5
2018-Feb-20 04:30N 51°17' E 001°49'5 9.2
2018-Feb-20 04:00N 51°21' E 001°52'5 9.5
2018-Feb-20 03:30N 51°25' E 001°56'510.0
2018-Feb-20 03:00N 51°29' E 002°00'510.5
2018-Feb-20 02:30N 51°33' E 002°06'510.6
2018-Feb-20 02:00N 51°37' E 002°12'611.3
2018-Feb-20 01:29N 51°42' E 002°18'44810.3
2018-Feb-18 06:09N 57°48' E 009°46'210.4
2018-Feb-18 05:59N 57°48' E 009°50'510.2
2018-Feb-18 05:28N 57°49' E 009°59'510.5
2018-Feb-18 05:00N 57°49' E 010°09'510.4
2018-Feb-18 04:30N 57°49' E 010°18'510.7
2018-Feb-18 04:00N 57°49' E 010°28'510.6
2018-Feb-18 03:30N 57°49' E 010°38'510.4
2018-Feb-18 03:00N 57°47' E 010°47'611.7
2018-Feb-18 02:30N 57°43' E 010°56'612.4
2018-Feb-18 02:00N 57°39' E 011°04'612.7
2018-Feb-18 01:30N 57°35' E 011°13'612.4
2018-Feb-18 01:00N 57°30' E 011°21'611.9
2018-Feb-18 00:30N 57°26' E 011°28'612.0
2018-Feb-18 00:00N 57°20' E 011°31'611.6
2018-Feb-17 23:30N 57°14' E 011°35'611.8
2018-Feb-17 23:00N 57°09' E 011°39'11610.7
2018-Feb-17 12:10N 55°15' E 011°06'212.0
2018-Feb-17 11:59N 55°13' E 011°06'712.0
2018-Feb-17 11:26N 55°06' E 011°03'512.6
2018-Feb-17 11:00N 55°01' E 011°02'611.8
2018-Feb-17 10:30N 54°56' E 010°56'611.7
2018-Feb-17 10:00N 54°51' E 010°53'611.8
2018-Feb-17 09:30N 54°45' E 010°48'5 9.4
2018-Feb-17 09:00N 54°40' E 010°49'611.8
2018-Feb-17 08:30N 54°37' E 010°57'611.9
2018-Feb-17 08:00N 54°36' E 011°07'612.2
2018-Feb-17 07:30N 54°34' E 011°17'612.2
2018-Feb-17 07:00N 54°31' E 011°27'612.2
2018-Feb-17 06:30N 54°29' E 011°37'612.1
2018-Feb-17 06:00N 54°27' E 011°46'612.3
2018-Feb-17 05:30N 54°26' E 011°57'612.3
2018-Feb-17 05:00N 54°26' E 012°07'64 8.6
2018-Feb-16 21:32N 54°60' E 013°43'210.1
2018-Feb-16 21:18N 55°00' E 013°47'7 9.8
2018-Feb-16 20:38N 55°03' E 013°57'6 9.6
2018-Feb-16 19:58N 55°06' E 014°07'1210.0
2018-Feb-16 18:44N 55°16' E 014°21'2 9.6
2018-Feb-16 18:30N 55°17' E 014°23'6 9.5
2018-Feb-16 17:50N 55°22' E 014°30'3 9.5
2018-Feb-16 17:29N 55°25' E 014°34'6 9.4
2018-Feb-16 16:48N 55°29' E 014°43'3 9.6
2018-Feb-16 16:30N 55°30' E 014°47'5 9.5
2018-Feb-16 16:00N 55°32' E 014°55'5 9.9
2018-Feb-16 15:30N 55°34' E 015°03'610.1
2018-Feb-16 14:54N 55°37' E 015°12'410.2
2018-Feb-16 14:30N 55°39' E 015°19'510.4
2018-Feb-16 14:00N 55°42' E 015°27'510.8
2018-Feb-16 13:30N 55°44' E 015°35'510.9
2018-Feb-16 13:00N 55°47' E 015°44'510.8
2018-Feb-16 12:30N 55°49' E 015°52'510.7
2018-Feb-16 12:00N 55°52' E 016°00'510.6
2018-Feb-16 11:30N 55°55' E 016°08'510.7
2018-Feb-16 11:00N 55°58' E 016°16'510.6
2018-Feb-16 10:30N 56°01' E 016°24'510.6
2018-Feb-16 10:00N 56°04' E 016°32'510.5
2018-Feb-16 09:30N 56°07' E 016°40'610.4
2018-Feb-16 08:55N 56°10' E 016°48'510.3
2018-Feb-16 08:29N 56°13' E 016°55'28510.4
2018-Feb-15 05:04N 59°36' E 023°12'111.7
2018-Feb-15 05:00N 59°36' E 023°14'611.9
2018-Feb-15 04:30N 59°38' E 023°25'611.5
2018-Feb-15 04:00N 59°40' E 023°36'611.3
2018-Feb-15 03:30N 59°41' E 023°47'611.0
2018-Feb-15 02:56N 59°43' E 023°59'1011.3
2018-Feb-15 02:02N 59°46' E 024°18'010.9
2018-Feb-15 02:00N 59°46' E 024°19'611.3
2018-Feb-15 01:30N 59°48' E 024°29'611.9
2018-Feb-15 01:00N 59°49' E 024°41'611.5
2018-Feb-15 00:30N 59°50' E 024°52'611.1
2018-Feb-14 23:57N 59°52' E 025°04'511.3
2018-Feb-14 23:30N 59°53' E 025°14'611.4
2018-Feb-14 23:00N 59°54' E 025°25'611.5
2018-Feb-14 22:30N 59°55' E 025°36'1811.3
2018-Feb-14 20:52N 59°59' E 026°12'411.2
2018-Feb-14 20:30N 59°60' E 026°20'511.0
2018-Feb-14 20:01N 60°01' E 026°31'510.7
2018-Feb-14 19:31N 60°01' E 026°41'611.3
2018-Feb-14 19:00N 60°00' E 026°52'510.9
2018-Feb-14 18:30N 59°60' E 027°03'611.0
2018-Feb-14 18:00N 60°03' E 027°12'611.0
2018-Feb-14 17:30N 60°05' E 027°22'510.4
2018-Feb-14 17:00N 60°08' E 027°31'510.0
2018-Feb-14 16:31N 60°10' E 027°40'5 9.9
2018-Feb-14 16:01N 60°11' E 027°50'5 9.9
2018-Feb-14 15:30N 60°10' E 027°60'510.0
2018-Feb-14 15:00N 60°09' E 028°09'5 9.7
2018-Feb-14 14:30N 60°07' E 028°18'510.0
2018-Feb-14 14:00N 60°04' E 028°26'5 9.9
2018-Feb-14 13:30N 60°03' E 028°36'510.6
2018-Feb-14 13:00N 60°03' E 028°47'2711.0
2018-Feb-14 10:35N 59°60' E 029°40'210.6
2018-Feb-14 10:22N 59°59' E 029°44'3 9.4
2018-Feb-14 10:00N 59°57' E 029°50'5 9.5
2018-Feb-14 09:30N 59°56' E 029°59'4 8.7
2018-Feb-14 09:01N 59°54' E 030°07'3 4.5
2018-Feb-14 08:27N 59°53' E 030°11'0 0.0
2018-Feb-14 08:00N 59°53' E 030°11'0 0.0
2018-Feb-14 07:30N 59°53' E 030°11'0 0.0
2018-Feb-14 06:45N 59°53' E 030°11'0 0.0
2018-Feb-14 06:24N 59°53' E 030°11'0 0.0
2018-Feb-14 05:57N 59°53' E 030°11'0 0.0
2018-Feb-14 05:30N 59°53' E 030°11'0 0.0
2018-Feb-14 05:00N 59°53' E 030°11'0 0.0
2018-Feb-14 04:30N 59°53' E 030°11'0 0.0
2018-Feb-14 04:00N 59°53' E 030°11'0 0.0
2018-Feb-14 03:27N 59°53' E 030°11'0 0.0
2018-Feb-14 02:57N 59°53' E 030°11'0 0.0
2018-Feb-14 02:30N 59°53' E 030°11'0 0.0
2018-Feb-14 01:57N 59°53' E 030°11'0 0.0
2018-Feb-14 01:30N 59°53' E 030°11'0 0.0
2018-Feb-14 01:00N 59°53' E 030°11'0 0.0
2018-Feb-14 00:30N 59°53' E 030°11'0 0.0
2018-Feb-14 00:00N 59°53' E 030°11'0 0.0
2018-Feb-13 23:30N 59°53' E 030°11'0 0.0
2018-Feb-13 23:00N 59°53' E 030°11'0 0.0
2018-Feb-13 22:30N 59°53' E 030°11'0 0.0
2018-Feb-13 22:00N 59°53' E 030°11'0 0.0
2018-Feb-13 21:30N 59°53' E 030°11'0 0.0
2018-Feb-13 21:00N 59°53' E 030°11'0 0.0
2018-Feb-13 20:30N 59°53' E 030°11'0 0.0
2018-Feb-13 20:00N 59°53' E 030°11'0 0.0
2018-Feb-13 19:30N 59°53' E 030°11'0 0.0
2018-Feb-13 19:00N 59°53' E 030°11'0 0.0
2018-Feb-13 18:27N 59°53' E 030°11'0 0.0
2018-Feb-13 18:00N 59°53' E 030°11'0 0.0
2018-Feb-13 17:30N 59°53' E 030°11'0 0.0
2018-Feb-13 17:00N 59°53' E 030°11'0 0.0
2018-Feb-13 16:30N 59°53' E 030°11'0 0.0
2018-Feb-13 16:00N 59°53' E 030°11'0 0.0
2018-Feb-13 15:27N 59°53' E 030°11'0 0.0
2018-Feb-13 15:00N 59°53' E 030°11'0 0.0
2018-Feb-13 14:27N 59°53' E 030°11'0 0.0
2018-Feb-13 13:54N 59°53' E 030°11'0 0.0
2018-Feb-13 13:30N 59°53' E 030°11'0 0.0
2018-Feb-13 13:00N 59°53' E 030°11'0 0.0
2018-Feb-13 12:30N 59°53' E 030°11'0 0.0
2018-Feb-13 11:57N 59°53' E 030°11'0 0.0
2018-Feb-13 11:27N 59°53' E 030°11'0 0.0
2018-Feb-13 11:00N 59°53' E 030°11'0 0.0
2018-Feb-13 10:30N 59°53' E 030°11'0 0.0
2018-Feb-13 10:00N 59°53' E 030°11'0 0.0
2018-Feb-13 09:21N 59°53' E 030°11'0 0.0
2018-Feb-13 08:57N 59°53' E 030°11'0 0.0
2018-Feb-13 08:30N 59°53' E 030°11'0 0.0
2018-Feb-13 08:00N 59°53' E 030°11'0 0.0
2018-Feb-13 07:24N 59°53' E 030°11'0 0.0
2018-Feb-13 07:00N 59°53' E 030°11'0 0.0
2018-Feb-13 06:27N 59°53' E 030°11'0 0.0
2018-Feb-13 06:00N 59°53' E 030°11'0 0.0
2018-Feb-13 05:30N 59°53' E 030°11'0 0.0
2018-Feb-13 05:00N 59°53' E 030°11'0 0.0
2018-Feb-13 04:30N 59°53' E 030°11'0 0.0
2018-Feb-13 03:51N 59°53' E 030°11'0 0.0
2018-Feb-13 03:24N 59°53' E 030°11'0 0.0
2018-Feb-13 03:00N 59°53' E 030°11'0 0.0
2018-Feb-13 02:27N 59°53' E 030°11'0 0.0
2018-Feb-13 01:54N 59°53' E 030°11'0 0.0
2018-Feb-13 01:30N 59°53' E 030°11'0 0.0
2018-Feb-13 01:00N 59°53' E 030°11'0 0.0
2018-Feb-13 00:30N 59°53' E 030°11'0 0.0
2018-Feb-13 00:00N 59°53' E 030°11'0 0.0
2018-Feb-12 23:30N 59°53' E 030°11'0 0.0
2018-Feb-12 23:00N 59°53' E 030°11'0 0.0
2018-Feb-12 22:30N 59°53' E 030°11'0 0.0
2018-Feb-12 21:57N 59°53' E 030°11'0 0.0
2018-Feb-12 21:30N 59°53' E 030°11'0 0.0
2018-Feb-12 21:00N 59°53' E 030°11'0 0.0
2018-Feb-12 20:30N 59°53' E 030°11'0 0.0
2018-Feb-12 19:54N 59°53' E 030°11'0 0.0
2018-Feb-12 19:30N 59°53' E 030°11'0 0.0
2018-Feb-12 18:57N 59°53' E 030°11'0 0.0
2018-Feb-12 18:27N 59°53' E 030°11'0 0.0
2018-Feb-12 18:00N 59°53' E 030°11'0 0.0
2018-Feb-12 17:30N 59°53' E 030°11'0 0.0
2018-Feb-12 16:57N 59°53' E 030°11'0 0.0
2018-Feb-12 16:18N 59°53' E 030°11'0 0.0
2018-Feb-12 16:00N 59°53' E 030°11'0 0.0
2018-Feb-12 15:18N 59°53' E 030°11'0 0.0
2018-Feb-12 14:59N 59°53' E 030°11'0 0.0
2018-Feb-12 14:30N 59°53' E 030°11'0 0.0
2018-Feb-12 14:00N 59°53' E 030°11'0 0.0
2018-Feb-12 13:30N 59°53' E 030°11'0 0.0
2018-Feb-12 12:54N 59°53' E 030°11'0 0.0
2018-Feb-12 11:35N 59°53' E 030°11'0 0.0
2018-Feb-12 11:27N 59°53' E 030°11'0 0.0
2018-Feb-12 11:00N 59°53' E 030°11'0 0.0
2018-Feb-12 10:26N 59°53' E 030°11'0 0.0
2018-Feb-12 09:24N 59°53' E 030°11'0 0.0
2018-Feb-12 08:50N 59°53' E 030°11'0 0.0
2018-Feb-12 08:30N 59°53' E 030°11'0 0.0
2018-Feb-12 07:54N 59°53' E 030°11'0 0.0
2018-Feb-12 07:30N 59°53' E 030°11'0 0.0
2018-Feb-12 07:00N 59°53' E 030°11'0 0.0
2018-Feb-12 06:30N 59°53' E 030°11'0 0.1
2018-Feb-12 06:01N 59°53' E 030°11'0 0.3
2018-Feb-12 05:31N 59°53' E 030°12'1 1.1
2018-Feb-12 05:00N 59°53' E 030°11'0 0.8
2018-Feb-12 04:30N 59°53' E 030°10'0 0.4
2018-Feb-12 04:01N 59°53' E 030°10'4 8.3
2018-Feb-12 03:29N 59°55' E 030°02'510.3
2018-Feb-12 03:00N 59°57' E 029°52'710.1
2018-Feb-12 02:19N 59°60' E 029°40'  

Dump ship's entire track history